sensor_id;sensor_type;location;lat;lon;timestamp;P1;durP1;ratioP1;P2;durP2;ratioP2
48203;SDS011;33994;50.998;5.864;2023-09-19T00:02:28;11.60;;;1.75;;
48203;SDS011;33994;50.998;5.864;2023-09-19T00:05:33;14.10;;;2.30;;
48203;SDS011;33994;50.998;5.864;2023-09-19T00:08:37;9.45;;;2.03;;
48203;SDS011;33994;50.998;5.864;2023-09-19T00:11:43;9.60;;;2.08;;
48203;SDS011;33994;50.998;5.864;2023-09-19T00:14:48;12.52;;;2.33;;
48203;SDS011;33994;50.998;5.864;2023-09-19T00:17:51;12.07;;;2.40;;
48203;SDS011;33994;50.998;5.864;2023-09-19T00:20:57;10.23;;;1.98;;
48203;SDS011;33994;50.998;5.864;2023-09-19T00:24:00;11.70;;;2.85;;
48203;SDS011;33994;50.998;5.864;2023-09-19T00:27:04;13.65;;;2.47;;
48203;SDS011;33994;50.998;5.864;2023-09-19T00:30:10;12.98;;;2.40;;
48203;SDS011;33994;50.998;5.864;2023-09-19T00:33:15;10.80;;;1.85;;
48203;SDS011;33994;50.998;5.864;2023-09-19T00:36:18;11.02;;;2.55;;
48203;SDS011;33994;50.998;5.864;2023-09-19T00:39:21;9.25;;;2.17;;
48203;SDS011;33994;50.998;5.864;2023-09-19T00:42:24;10.52;;;2.40;;
48203;SDS011;33994;50.998;5.864;2023-09-19T00:45:29;8.23;;;1.85;;
48203;SDS011;33994;50.998;5.864;2023-09-19T00:48:33;11.77;;;2.35;;
48203;SDS011;33994;50.998;5.864;2023-09-19T00:51:42;10.05;;;2.67;;
48203;SDS011;33994;50.998;5.864;2023-09-19T00:54:47;12.82;;;2.10;;
48203;SDS011;33994;50.998;5.864;2023-09-19T00:57:50;13.73;;;2.22;;
48203;SDS011;33994;50.998;5.864;2023-09-19T01:00:57;9.63;;;2.22;;
48203;SDS011;33994;50.998;5.864;2023-09-19T01:04:01;10.07;;;1.90;;
48203;SDS011;33994;50.998;5.864;2023-09-19T01:07:04;15.38;;;2.22;;
48203;SDS011;33994;50.998;5.864;2023-09-19T01:10:10;10.07;;;2.08;;
48203;SDS011;33994;50.998;5.864;2023-09-19T01:13:17;12.07;;;2.53;;
48203;SDS011;33994;50.998;5.864;2023-09-19T01:16:35;8.35;;;1.80;;
48203;SDS011;33994;50.998;5.864;2023-09-19T01:19:54;16.10;;;2.17;;
48203;SDS011;33994;50.998;5.864;2023-09-19T01:23:16;10.63;;;2.42;;
48203;SDS011;33994;50.998;5.864;2023-09-19T01:26:29;13.05;;;2.13;;
48203;SDS011;33994;50.998;5.864;2023-09-19T01:29:45;9.98;;;2.63;;
48203;SDS011;33994;50.998;5.864;2023-09-19T01:32:51;11.80;;;2.22;;
48203;SDS011;33994;50.998;5.864;2023-09-19T01:35:55;8.15;;;2.05;;
48203;SDS011;33994;50.998;5.864;2023-09-19T01:38:58;13.10;;;3.13;;
48203;SDS011;33994;50.998;5.864;2023-09-19T01:42:04;11.25;;;2.78;;
48203;SDS011;33994;50.998;5.864;2023-09-19T01:45:17;11.55;;;2.42;;
48203;SDS011;33994;50.998;5.864;2023-09-19T01:48:34;10.65;;;2.38;;
48203;SDS011;33994;50.998;5.864;2023-09-19T01:51:42;11.00;;;1.95;;
48203;SDS011;33994;50.998;5.864;2023-09-19T01:54:57;13.63;;;2.25;;
48203;SDS011;33994;50.998;5.864;2023-09-19T01:58:06;9.23;;;2.47;;
48203;SDS011;33994;50.998;5.864;2023-09-19T02:01:17;10.90;;;1.85;;
48203;SDS011;33994;50.998;5.864;2023-09-19T02:04:26;9.73;;;2.72;;
48203;SDS011;33994;50.998;5.864;2023-09-19T02:07:29;10.98;;;1.88;;
48203;SDS011;33994;50.998;5.864;2023-09-19T02:10:33;7.80;;;2.17;;
48203;SDS011;33994;50.998;5.864;2023-09-19T02:13:36;15.48;;;2.30;;
48203;SDS011;33994;50.998;5.864;2023-09-19T02:16:40;11.27;;;2.28;;
48203;SDS011;33994;50.998;5.864;2023-09-19T02:19:45;13.85;;;2.42;;
48203;SDS011;33994;50.998;5.864;2023-09-19T02:22:48;18.58;;;4.32;;
48203;SDS011;33994;50.998;5.864;2023-09-19T02:25:52;14.15;;;2.13;;
48203;SDS011;33994;50.998;5.864;2023-09-19T02:28:56;9.50;;;2.03;;
48203;SDS011;33994;50.998;5.864;2023-09-19T02:31:59;15.45;;;3.00;;
48203;SDS011;33994;50.998;5.864;2023-09-19T02:35:14;12.55;;;2.22;;
48203;SDS011;33994;50.998;5.864;2023-09-19T02:38:18;15.10;;;2.72;;
48203;SDS011;33994;50.998;5.864;2023-09-19T02:41:21;13.68;;;3.38;;
48203;SDS011;33994;50.998;5.864;2023-09-19T02:44:24;9.45;;;2.08;;
48203;SDS011;33994;50.998;5.864;2023-09-19T02:47:28;9.32;;;2.22;;
48203;SDS011;33994;50.998;5.864;2023-09-19T02:50:33;10.70;;;2.58;;
48203;SDS011;33994;50.998;5.864;2023-09-19T02:53:36;13.82;;;2.10;;
48203;SDS011;33994;50.998;5.864;2023-09-19T02:56:39;13.02;;;2.85;;
48203;SDS011;33994;50.998;5.864;2023-09-19T02:59:42;13.05;;;2.47;;
48203;SDS011;33994;50.998;5.864;2023-09-19T03:02:46;16.98;;;2.60;;
48203;SDS011;33994;50.998;5.864;2023-09-19T03:05:52;11.65;;;2.15;;
48203;SDS011;33994;50.998;5.864;2023-09-19T03:08:55;18.05;;;2.70;;
48203;SDS011;33994;50.998;5.864;2023-09-19T03:12:00;9.82;;;2.28;;
48203;SDS011;33994;50.998;5.864;2023-09-19T03:15:03;10.82;;;2.50;;
48203;SDS011;33994;50.998;5.864;2023-09-19T03:18:09;17.77;;;3.13;;
48203;SDS011;33994;50.998;5.864;2023-09-19T03:21:14;10.65;;;2.08;;
48203;SDS011;33994;50.998;5.864;2023-09-19T03:24:18;11.18;;;2.38;;
48203;SDS011;33994;50.998;5.864;2023-09-19T03:27:21;8.85;;;2.03;;
48203;SDS011;33994;50.998;5.864;2023-09-19T03:30:27;8.82;;;1.83;;
48203;SDS011;33994;50.998;5.864;2023-09-19T03:33:31;14.68;;;2.60;;
48203;SDS011;33994;50.998;5.864;2023-09-19T03:36:38;14.43;;;3.10;;
48203;SDS011;33994;50.998;5.864;2023-09-19T03:39:41;10.50;;;2.75;;
48203;SDS011;33994;50.998;5.864;2023-09-19T03:42:45;14.80;;;2.60;;
48203;SDS011;33994;50.998;5.864;2023-09-19T03:45:48;20.00;;;2.70;;
48203;SDS011;33994;50.998;5.864;2023-09-19T03:48:51;16.95;;;2.90;;
48203;SDS011;33994;50.998;5.864;2023-09-19T03:51:56;15.25;;;2.72;;
48203;SDS011;33994;50.998;5.864;2023-09-19T03:55:00;11.48;;;2.75;;
48203;SDS011;33994;50.998;5.864;2023-09-19T03:58:03;16.70;;;3.38;;
48203;SDS011;33994;50.998;5.864;2023-09-19T04:01:07;15.73;;;2.45;;
48203;SDS011;33994;50.998;5.864;2023-09-19T04:04:10;9.77;;;2.47;;
48203;SDS011;33994;50.998;5.864;2023-09-19T04:07:15;16.45;;;3.13;;
48203;SDS011;33994;50.998;5.864;2023-09-19T04:10:19;10.57;;;2.38;;
48203;SDS011;33994;50.998;5.864;2023-09-19T04:13:23;9.15;;;3.13;;
48203;SDS011;33994;50.998;5.864;2023-09-19T04:16:26;15.05;;;2.90;;
48203;SDS011;33994;50.998;5.864;2023-09-19T04:19:29;11.02;;;2.30;;
48203;SDS011;33994;50.998;5.864;2023-09-19T04:22:35;15.93;;;2.40;;
48203;SDS011;33994;50.998;5.864;2023-09-19T04:25:40;15.00;;;2.72;;
48203;SDS011;33994;50.998;5.864;2023-09-19T04:28:43;12.77;;;2.03;;
48203;SDS011;33994;50.998;5.864;2023-09-19T04:31:47;6.40;;;2.35;;
48203;SDS011;33994;50.998;5.864;2023-09-19T04:34:51;11.93;;;2.63;;
48203;SDS011;33994;50.998;5.864;2023-09-19T04:37:56;12.68;;;2.58;;
48203;SDS011;33994;50.998;5.864;2023-09-19T04:41:00;11.23;;;2.28;;
48203;SDS011;33994;50.998;5.864;2023-09-19T04:44:04;11.48;;;2.33;;
48203;SDS011;33994;50.998;5.864;2023-09-19T04:47:08;12.85;;;2.67;;
48203;SDS011;33994;50.998;5.864;2023-09-19T04:50:12;13.98;;;2.38;;
48203;SDS011;33994;50.998;5.864;2023-09-19T04:53:19;13.32;;;2.17;;
48203;SDS011;33994;50.998;5.864;2023-09-19T04:56:21;16.05;;;2.95;;
48203;SDS011;33994;50.998;5.864;2023-09-19T04:59:24;13.13;;;2.38;;
48203;SDS011;33994;50.998;5.864;2023-09-19T05:02:29;13.55;;;2.60;;
48203;SDS011;33994;50.998;5.864;2023-09-19T05:05:32;17.83;;;2.20;;
48203;SDS011;33994;50.998;5.864;2023-09-19T05:08:37;16.52;;;1.95;;
48203;SDS011;33994;50.998;5.864;2023-09-19T05:11:40;12.60;;;2.60;;
48203;SDS011;33994;50.998;5.864;2023-09-19T05:14:44;14.85;;;3.22;;
48203;SDS011;33994;50.998;5.864;2023-09-19T05:17:47;9.63;;;2.30;;
48203;SDS011;33994;50.998;5.864;2023-09-19T05:20:52;14.52;;;3.08;;
48203;SDS011;33994;50.998;5.864;2023-09-19T05:23:57;12.27;;;2.08;;
48203;SDS011;33994;50.998;5.864;2023-09-19T05:27:01;12.13;;;2.40;;
48203;SDS011;33994;50.998;5.864;2023-09-19T05:30:06;17.67;;;3.35;;
48203;SDS011;33994;50.998;5.864;2023-09-19T05:33:10;13.98;;;2.17;;
48203;SDS011;33994;50.998;5.864;2023-09-19T05:36:14;9.93;;;3.28;;
48203;SDS011;33994;50.998;5.864;2023-09-19T05:39:19;11.45;;;2.35;;
48203;SDS011;33994;50.998;5.864;2023-09-19T05:42:22;8.38;;;2.55;;
48203;SDS011;33994;50.998;5.864;2023-09-19T05:45:26;10.23;;;2.25;;
48203;SDS011;33994;50.998;5.864;2023-09-19T05:48:30;11.85;;;2.75;;
48203;SDS011;33994;50.998;5.864;2023-09-19T05:51:34;15.45;;;2.95;;
48203;SDS011;33994;50.998;5.864;2023-09-19T05:54:39;17.35;;;3.20;;
48203;SDS011;33994;50.998;5.864;2023-09-19T05:57:42;16.27;;;3.35;;
48203;SDS011;33994;50.998;5.864;2023-09-19T06:00:47;11.15;;;2.45;;
48203;SDS011;33994;50.998;5.864;2023-09-19T06:03:50;11.23;;;2.25;;
48203;SDS011;33994;50.998;5.864;2023-09-19T06:06:54;16.05;;;2.70;;
48203;SDS011;33994;50.998;5.864;2023-09-19T06:09:59;17.08;;;2.80;;
48203;SDS011;33994;50.998;5.864;2023-09-19T06:13:02;12.57;;;2.78;;
48203;SDS011;33994;50.998;5.864;2023-09-19T06:16:10;13.40;;;2.70;;
48203;SDS011;33994;50.998;5.864;2023-09-19T06:19:14;11.23;;;2.40;;
48203;SDS011;33994;50.998;5.864;2023-09-19T06:22:16;11.48;;;1.88;;
48203;SDS011;33994;50.998;5.864;2023-09-19T06:25:21;11.30;;;2.30;;
48203;SDS011;33994;50.998;5.864;2023-09-19T06:28:24;8.98;;;2.13;;
48203;SDS011;33994;50.998;5.864;2023-09-19T06:31:27;9.40;;;2.50;;
48203;SDS011;33994;50.998;5.864;2023-09-19T06:34:33;14.23;;;2.35;;
48203;SDS011;33994;50.998;5.864;2023-09-19T06:37:37;16.83;;;2.38;;
48203;SDS011;33994;50.998;5.864;2023-09-19T06:40:44;11.90;;;2.45;;
48203;SDS011;33994;50.998;5.864;2023-09-19T06:43:48;7.88;;;2.22;;
48203;SDS011;33994;50.998;5.864;2023-09-19T06:46:51;22.92;;;3.38;;
48203;SDS011;33994;50.998;5.864;2023-09-19T06:49:56;16.17;;;2.85;;
48203;SDS011;33994;50.998;5.864;2023-09-19T06:52:59;14.23;;;2.38;;
48203;SDS011;33994;50.998;5.864;2023-09-19T06:56:11;15.20;;;2.53;;
48203;SDS011;33994;50.998;5.864;2023-09-19T06:59:15;9.93;;;2.10;;
48203;SDS011;33994;50.998;5.864;2023-09-19T07:02:20;12.95;;;2.70;;
48203;SDS011;33994;50.998;5.864;2023-09-19T07:05:24;8.82;;;2.20;;
48203;SDS011;33994;50.998;5.864;2023-09-19T07:08:27;17.40;;;2.70;;
48203;SDS011;33994;50.998;5.864;2023-09-19T07:11:33;12.10;;;2.25;;
48203;SDS011;33994;50.998;5.864;2023-09-19T07:14:36;12.98;;;2.38;;
48203;SDS011;33994;50.998;5.864;2023-09-19T07:17:39;11.02;;;2.15;;
48203;SDS011;33994;50.998;5.864;2023-09-19T07:20:43;18.67;;;3.30;;
48203;SDS011;33994;50.998;5.864;2023-09-19T07:23:47;15.85;;;2.35;;
48203;SDS011;33994;50.998;5.864;2023-09-19T07:26:52;11.40;;;2.20;;
48203;SDS011;33994;50.998;5.864;2023-09-19T07:29:56;12.45;;;2.15;;
48203;SDS011;33994;50.998;5.864;2023-09-19T07:32:59;11.55;;;2.10;;
48203;SDS011;33994;50.998;5.864;2023-09-19T07:36:02;16.50;;;2.53;;
48203;SDS011;33994;50.998;5.864;2023-09-19T07:39:08;13.52;;;1.92;;
48203;SDS011;33994;50.998;5.864;2023-09-19T07:42:13;17.23;;;2.47;;
48203;SDS011;33994;50.998;5.864;2023-09-19T07:45:17;10.55;;;1.90;;
48203;SDS011;33994;50.998;5.864;2023-09-19T07:48:20;18.65;;;2.53;;
48203;SDS011;33994;50.998;5.864;2023-09-19T07:51:25;11.25;;;1.90;;
48203;SDS011;33994;50.998;5.864;2023-09-19T07:54:28;9.65;;;2.38;;
48203;SDS011;33994;50.998;5.864;2023-09-19T07:57:34;16.10;;;2.38;;
48203;SDS011;33994;50.998;5.864;2023-09-19T08:00:38;10.60;;;2.30;;
48203;SDS011;33994;50.998;5.864;2023-09-19T08:03:41;12.63;;;2.30;;
48203;SDS011;33994;50.998;5.864;2023-09-19T08:06:45;15.27;;;2.25;;
48203;SDS011;33994;50.998;5.864;2023-09-19T08:09:48;11.60;;;2.22;;
48203;SDS011;33994;50.998;5.864;2023-09-19T08:12:52;8.88;;;1.88;;
48203;SDS011;33994;50.998;5.864;2023-09-19T08:15:56;13.68;;;2.17;;
48203;SDS011;33994;50.998;5.864;2023-09-19T08:18:59;13.18;;;2.38;;
48203;SDS011;33994;50.998;5.864;2023-09-19T08:22:04;10.70;;;1.95;;
48203;SDS011;33994;50.998;5.864;2023-09-19T08:25:07;9.02;;;1.90;;
48203;SDS011;33994;50.998;5.864;2023-09-19T08:28:12;9.35;;;1.70;;
48203;SDS011;33994;50.998;5.864;2023-09-19T08:31:16;12.82;;;2.28;;
48203;SDS011;33994;50.998;5.864;2023-09-19T08:34:20;8.10;;;2.20;;
48203;SDS011;33994;50.998;5.864;2023-09-19T08:37:23;13.82;;;2.22;;
48203;SDS011;33994;50.998;5.864;2023-09-19T08:40:26;13.60;;;2.47;;
48203;SDS011;33994;50.998;5.864;2023-09-19T08:43:31;13.93;;;2.40;;
48203;SDS011;33994;50.998;5.864;2023-09-19T08:46:34;14.85;;;2.30;;
48203;SDS011;33994;50.998;5.864;2023-09-19T08:53:27;15.15;;;2.83;;
48203;SDS011;33994;50.998;5.864;2023-09-19T08:56:37;12.90;;;2.17;;
48203;SDS011;33994;50.998;5.864;2023-09-19T08:59:43;13.90;;;2.65;;
48203;SDS011;33994;50.998;5.864;2023-09-19T09:02:51;10.25;;;1.95;;
48203;SDS011;33994;50.998;5.864;2023-09-19T09:05:55;10.32;;;2.33;;
48203;SDS011;33994;50.998;5.864;2023-09-19T09:08:58;13.23;;;2.33;;
48203;SDS011;33994;50.998;5.864;2023-09-19T09:12:03;6.90;;;2.00;;
48203;SDS011;33994;50.998;5.864;2023-09-19T09:15:10;13.68;;;1.92;;
48203;SDS011;33994;50.998;5.864;2023-09-19T09:18:15;8.48;;;2.25;;
48203;SDS011;33994;50.998;5.864;2023-09-19T09:21:19;8.43;;;1.73;;
48203;SDS011;33994;50.998;5.864;2023-09-19T09:24:26;15.43;;;2.10;;
48203;SDS011;33994;50.998;5.864;2023-09-19T09:27:30;12.98;;;2.53;;
48203;SDS011;33994;50.998;5.864;2023-09-19T09:30:37;14.27;;;2.20;;
48203;SDS011;33994;50.998;5.864;2023-09-19T09:33:40;5.95;;;1.88;;
48203;SDS011;33994;50.998;5.864;2023-09-19T09:36:44;11.20;;;1.92;;
48203;SDS011;33994;50.998;5.864;2023-09-19T09:39:52;18.77;;;2.33;;
48203;SDS011;33994;50.998;5.864;2023-09-19T09:42:56;15.15;;;2.63;;
48203;SDS011;33994;50.998;5.864;2023-09-19T09:46:09;14.07;;;2.15;;
48203;SDS011;33994;50.998;5.864;2023-09-19T09:49:21;14.15;;;2.40;;
48203;SDS011;33994;50.998;5.864;2023-09-19T09:52:25;13.13;;;2.70;;
48203;SDS011;33994;50.998;5.864;2023-09-19T09:55:40;9.93;;;1.92;;
48203;SDS011;33994;50.998;5.864;2023-09-19T09:59:00;9.57;;;2.33;;
48203;SDS011;33994;50.998;5.864;2023-09-19T10:02:07;9.75;;;2.00;;
48203;SDS011;33994;50.998;5.864;2023-09-19T10:05:11;12.23;;;2.38;;
48203;SDS011;33994;50.998;5.864;2023-09-19T10:08:16;8.75;;;2.78;;
48203;SDS011;33994;50.998;5.864;2023-09-19T10:11:20;7.40;;;1.70;;
48203;SDS011;33994;50.998;5.864;2023-09-19T10:14:24;13.15;;;2.22;;
48203;SDS011;33994;50.998;5.864;2023-09-19T10:17:35;12.63;;;2.53;;
48203;SDS011;33994;50.998;5.864;2023-09-19T10:20:39;8.35;;;1.90;;
48203;SDS011;33994;50.998;5.864;2023-09-19T10:23:43;10.98;;;2.25;;
48203;SDS011;33994;50.998;5.864;2023-09-19T10:26:48;10.35;;;2.60;;
48203;SDS011;33994;50.998;5.864;2023-09-19T10:29:53;12.38;;;2.17;;
48203;SDS011;33994;50.998;5.864;2023-09-19T10:33:01;10.68;;;1.80;;
48203;SDS011;33994;50.998;5.864;2023-09-19T10:36:09;8.25;;;2.10;;
48203;SDS011;33994;50.998;5.864;2023-09-19T10:39:14;12.63;;;2.70;;
48203;SDS011;33994;50.998;5.864;2023-09-19T10:42:19;12.70;;;2.42;;
48203;SDS011;33994;50.998;5.864;2023-09-19T10:45:23;6.57;;;1.85;;
48203;SDS011;33994;50.998;5.864;2023-09-19T10:48:28;9.98;;;2.08;;
48203;SDS011;33994;50.998;5.864;2023-09-19T10:51:33;10.05;;;2.03;;
48203;SDS011;33994;50.998;5.864;2023-09-19T10:54:44;7.57;;;1.88;;
48203;SDS011;33994;50.998;5.864;2023-09-19T10:57:49;13.23;;;2.55;;
48203;SDS011;33994;50.998;5.864;2023-09-19T11:00:53;9.70;;;2.10;;
48203;SDS011;33994;50.998;5.864;2023-09-19T11:07:28;7.60;;;1.90;;
48203;SDS011;33994;50.998;5.864;2023-09-19T11:10:44;7.28;;;1.95;;
48203;SDS011;33994;50.998;5.864;2023-09-19T11:13:48;7.75;;;2.15;;
48203;SDS011;33994;50.998;5.864;2023-09-19T11:20:47;8.38;;;1.70;;
48203;SDS011;33994;50.998;5.864;2023-09-19T11:27:31;12.93;;;2.03;;
48203;SDS011;33994;50.998;5.864;2023-09-19T11:30:35;7.30;;;2.03;;
48203;SDS011;33994;50.998;5.864;2023-09-19T11:33:40;9.30;;;1.95;;
48203;SDS011;33994;50.998;5.864;2023-09-19T11:36:45;8.00;;;1.63;;
48203;SDS011;33994;50.998;5.864;2023-09-19T11:43:28;9.38;;;2.42;;
48203;SDS011;33994;50.998;5.864;2023-09-19T11:46:51;7.25;;;1.75;;
48203;SDS011;33994;50.998;5.864;2023-09-19T11:49:54;8.25;;;1.60;;
48203;SDS011;33994;50.998;5.864;2023-09-19T11:52:59;6.13;;;1.40;;
48203;SDS011;33994;50.998;5.864;2023-09-19T11:56:05;6.65;;;1.48;;
48203;SDS011;33994;50.998;5.864;2023-09-19T11:59:09;8.07;;;1.60;;
48203;SDS011;33994;50.998;5.864;2023-09-19T12:02:18;8.95;;;1.45;;
48203;SDS011;33994;50.998;5.864;2023-09-19T12:05:37;11.10;;;1.67;;
48203;SDS011;33994;50.998;5.864;2023-09-19T12:08:44;7.50;;;1.90;;
48203;SDS011;33994;50.998;5.864;2023-09-19T12:11:50;3.53;;;1.20;;
48203;SDS011;33994;50.998;5.864;2023-09-19T12:14:57;7.65;;;1.80;;
48203;SDS011;33994;50.998;5.864;2023-09-19T12:18:00;10.80;;;1.58;;
48203;SDS011;33994;50.998;5.864;2023-09-19T12:21:03;7.50;;;1.27;;
48203;SDS011;33994;50.998;5.864;2023-09-19T12:24:11;6.90;;;1.40;;
48203;SDS011;33994;50.998;5.864;2023-09-19T12:27:15;4.13;;;1.33;;
48203;SDS011;33994;50.998;5.864;2023-09-19T12:30:18;7.88;;;1.52;;
48203;SDS011;33994;50.998;5.864;2023-09-19T12:33:22;6.35;;;1.23;;
48203;SDS011;33994;50.998;5.864;2023-09-19T12:36:27;7.15;;;1.38;;
48203;SDS011;33994;50.998;5.864;2023-09-19T12:39:31;9.63;;;1.75;;
48203;SDS011;33994;50.998;5.864;2023-09-19T12:42:35;9.98;;;1.80;;
48203;SDS011;33994;50.998;5.864;2023-09-19T12:45:38;4.45;;;1.10;;
48203;SDS011;33994;50.998;5.864;2023-09-19T12:48:45;3.20;;;1.00;;
48203;SDS011;33994;50.998;5.864;2023-09-19T12:51:48;6.22;;;1.58;;
48203;SDS011;33994;50.998;5.864;2023-09-19T12:55:00;5.88;;;1.00;;
48203;SDS011;33994;50.998;5.864;2023-09-19T12:58:07;7.55;;;1.13;;
48203;SDS011;33994;50.998;5.864;2023-09-19T13:01:14;3.63;;;0.80;;
48203;SDS011;33994;50.998;5.864;2023-09-19T13:04:18;4.10;;;0.88;;
48203;SDS011;33994;50.998;5.864;2023-09-19T13:07:39;7.32;;;1.10;;
48203;SDS011;33994;50.998;5.864;2023-09-19T13:14:16;4.50;;;1.23;;
48203;SDS011;33994;50.998;5.864;2023-09-19T13:17:21;6.80;;;1.17;;
48203;SDS011;33994;50.998;5.864;2023-09-19T13:20:24;5.13;;;1.00;;
48203;SDS011;33994;50.998;5.864;2023-09-19T13:23:28;3.50;;;0.93;;
48203;SDS011;33994;50.998;5.864;2023-09-19T13:26:33;4.93;;;0.93;;
48203;SDS011;33994;50.998;5.864;2023-09-19T13:29:36;3.83;;;0.68;;
48203;SDS011;33994;50.998;5.864;2023-09-19T13:32:39;3.35;;;0.85;;
48203;SDS011;33994;50.998;5.864;2023-09-19T13:35:43;2.42;;;0.82;;
48203;SDS011;33994;50.998;5.864;2023-09-19T13:38:46;4.35;;;0.88;;
48203;SDS011;33994;50.998;5.864;2023-09-19T13:41:51;5.60;;;0.82;;
48203;SDS011;33994;50.998;5.864;2023-09-19T13:44:54;3.42;;;0.85;;
48203;SDS011;33994;50.998;5.864;2023-09-19T13:48:00;5.13;;;0.80;;
48203;SDS011;33994;50.998;5.864;2023-09-19T13:51:04;3.58;;;1.17;;
48203;SDS011;33994;50.998;5.864;2023-09-19T13:54:07;4.30;;;1.00;;
48203;SDS011;33994;50.998;5.864;2023-09-19T13:57:11;5.65;;;0.82;;
48203;SDS011;33994;50.998;5.864;2023-09-19T14:00:15;5.15;;;0.80;;
48203;SDS011;33994;50.998;5.864;2023-09-19T14:03:19;6.18;;;1.00;;
48203;SDS011;33994;50.998;5.864;2023-09-19T14:06:23;3.60;;;0.80;;
48203;SDS011;33994;50.998;5.864;2023-09-19T14:09:26;3.83;;;0.80;;
48203;SDS011;33994;50.998;5.864;2023-09-19T14:12:31;3.53;;;0.90;;
48203;SDS011;33994;50.998;5.864;2023-09-19T14:15:36;5.10;;;1.10;;
48203;SDS011;33994;50.998;5.864;2023-09-19T14:18:40;7.10;;;1.00;;
48203;SDS011;33994;50.998;5.864;2023-09-19T14:21:43;7.07;;;1.10;;
48203;SDS011;33994;50.998;5.864;2023-09-19T14:24:48;3.00;;;1.10;;
48203;SDS011;33994;50.998;5.864;2023-09-19T14:27:54;6.05;;;0.90;;
48203;SDS011;33994;50.998;5.864;2023-09-19T14:30:57;5.15;;;0.65;;
48203;SDS011;33994;50.998;5.864;2023-09-19T14:34:00;2.08;;;0.70;;
48203;SDS011;33994;50.998;5.864;2023-09-19T14:37:06;2.55;;;0.80;;
48203;SDS011;33994;50.998;5.864;2023-09-19T14:40:09;4.22;;;1.17;;
48203;SDS011;33994;50.998;5.864;2023-09-19T14:43:15;3.90;;;1.05;;
48203;SDS011;33994;50.998;5.864;2023-09-19T14:46:18;5.68;;;1.63;;
48203;SDS011;33994;50.998;5.864;2023-09-19T14:49:21;6.15;;;1.30;;
48203;SDS011;33994;50.998;5.864;2023-09-19T14:52:24;7.63;;;1.10;;
48203;SDS011;33994;50.998;5.864;2023-09-19T14:55:29;4.70;;;0.90;;
48203;SDS011;33994;50.998;5.864;2023-09-19T14:58:35;4.35;;;1.10;;
48203;SDS011;33994;50.998;5.864;2023-09-19T15:01:40;2.88;;;0.90;;
48203;SDS011;33994;50.998;5.864;2023-09-19T15:04:43;4.90;;;1.00;;
48203;SDS011;33994;50.998;5.864;2023-09-19T15:07:46;3.40;;;0.80;;
48203;SDS011;33994;50.998;5.864;2023-09-19T15:10:49;4.25;;;1.00;;
48203;SDS011;33994;50.998;5.864;2023-09-19T15:13:56;4.43;;;1.08;;
48203;SDS011;33994;50.998;5.864;2023-09-19T15:17:00;4.43;;;1.13;;
48203;SDS011;33994;50.998;5.864;2023-09-19T15:20:04;4.65;;;0.95;;
48203;SDS011;33994;50.998;5.864;2023-09-19T15:23:08;5.03;;;1.17;;
48203;SDS011;33994;50.998;5.864;2023-09-19T15:26:12;4.25;;;1.10;;
48203;SDS011;33994;50.998;5.864;2023-09-19T15:29:17;3.00;;;0.88;;
48203;SDS011;33994;50.998;5.864;2023-09-19T15:32:21;6.82;;;1.10;;
48203;SDS011;33994;50.998;5.864;2023-09-19T15:35:24;3.67;;;0.98;;
48203;SDS011;33994;50.998;5.864;2023-09-19T15:38:28;4.45;;;0.85;;
48203;SDS011;33994;50.998;5.864;2023-09-19T15:41:32;4.00;;;0.93;;
48203;SDS011;33994;50.998;5.864;2023-09-19T15:44:40;7.47;;;1.40;;
48203;SDS011;33994;50.998;5.864;2023-09-19T15:47:43;5.85;;;1.38;;
48203;SDS011;33994;50.998;5.864;2023-09-19T15:50:48;7.40;;;1.40;;
48203;SDS011;33994;50.998;5.864;2023-09-19T15:53:51;6.50;;;1.38;;
48203;SDS011;33994;50.998;5.864;2023-09-19T15:56:57;8.77;;;1.30;;
48203;SDS011;33994;50.998;5.864;2023-09-19T16:00:05;5.57;;;0.90;;
48203;SDS011;33994;50.998;5.864;2023-09-19T16:03:09;4.32;;;0.93;;
48203;SDS011;33994;50.998;5.864;2023-09-19T16:06:16;5.68;;;1.00;;
48203;SDS011;33994;50.998;5.864;2023-09-19T16:09:23;3.42;;;1.25;;
48203;SDS011;33994;50.998;5.864;2023-09-19T16:12:28;4.85;;;1.08;;
48203;SDS011;33994;50.998;5.864;2023-09-19T16:15:32;4.22;;;1.20;;
48203;SDS011;33994;50.998;5.864;2023-09-19T16:18:35;4.80;;;1.25;;
48203;SDS011;33994;50.998;5.864;2023-09-19T16:21:39;6.10;;;1.17;;
48203;SDS011;33994;50.998;5.864;2023-09-19T16:24:43;6.97;;;1.17;;
48203;SDS011;33994;50.998;5.864;2023-09-19T16:27:48;6.40;;;1.30;;
48203;SDS011;33994;50.998;5.864;2023-09-19T16:30:52;6.25;;;1.10;;
48203;SDS011;33994;50.998;5.864;2023-09-19T16:33:55;4.07;;;1.10;;
48203;SDS011;33994;50.998;5.864;2023-09-19T16:37:00;6.72;;;1.35;;
48203;SDS011;33994;50.998;5.864;2023-09-19T16:40:03;4.90;;;1.10;;
48203;SDS011;33994;50.998;5.864;2023-09-19T16:43:08;3.58;;;1.17;;
48203;SDS011;33994;50.998;5.864;2023-09-19T16:46:13;4.32;;;1.00;;
48203;SDS011;33994;50.998;5.864;2023-09-19T16:49:16;3.13;;;1.02;;
48203;SDS011;33994;50.998;5.864;2023-09-19T16:52:21;4.20;;;1.05;;
48203;SDS011;33994;50.998;5.864;2023-09-19T16:55:25;4.05;;;1.20;;
48203;SDS011;33994;50.998;5.864;2023-09-19T16:58:28;6.05;;;1.30;;
48203;SDS011;33994;50.998;5.864;2023-09-19T17:01:34;3.42;;;0.85;;
48203;SDS011;33994;50.998;5.864;2023-09-19T17:04:37;2.80;;;0.80;;
48203;SDS011;33994;50.998;5.864;2023-09-19T17:07:42;6.07;;;1.17;;
48203;SDS011;33994;50.998;5.864;2023-09-19T17:10:45;6.95;;;1.33;;
48203;SDS011;33994;50.998;5.864;2023-09-19T17:13:49;4.80;;;2.30;;
48203;SDS011;33994;50.998;5.864;2023-09-19T17:16:55;4.30;;;1.20;;
48203;SDS011;33994;50.998;5.864;2023-09-19T17:19:59;3.83;;;1.20;;
48203;SDS011;33994;50.998;5.864;2023-09-19T17:23:04;3.03;;;1.10;;
48203;SDS011;33994;50.998;5.864;2023-09-19T17:26:08;3.90;;;1.33;;
48203;SDS011;33994;50.998;5.864;2023-09-19T17:29:11;11.13;;;1.98;;
48203;SDS011;33994;50.998;5.864;2023-09-19T17:32:16;5.63;;;1.35;;
48203;SDS011;33994;50.998;5.864;2023-09-19T17:35:19;2.85;;;1.35;;
48203;SDS011;33994;50.998;5.864;2023-09-19T17:38:23;7.53;;;1.38;;
48203;SDS011;33994;50.998;5.864;2023-09-19T17:41:25;6.85;;;1.60;;
48203;SDS011;33994;50.998;5.864;2023-09-19T17:44:29;5.47;;;1.52;;
48203;SDS011;33994;50.998;5.864;2023-09-19T17:47:34;4.20;;;1.30;;
48203;SDS011;33994;50.998;5.864;2023-09-19T17:50:37;4.93;;;1.33;;
48203;SDS011;33994;50.998;5.864;2023-09-19T17:53:42;7.28;;;2.67;;
48203;SDS011;33994;50.998;5.864;2023-09-19T17:56:46;9.00;;;1.42;;
48203;SDS011;33994;50.998;5.864;2023-09-19T17:59:50;6.38;;;1.05;;
48203;SDS011;33994;50.998;5.864;2023-09-19T18:02:55;4.93;;;1.25;;
48203;SDS011;33994;50.998;5.864;2023-09-19T18:05:58;6.90;;;1.20;;
48203;SDS011;33994;50.998;5.864;2023-09-19T18:09:01;4.40;;;1.20;;
48203;SDS011;33994;50.998;5.864;2023-09-19T18:12:05;7.60;;;1.38;;
48203;SDS011;33994;50.998;5.864;2023-09-19T18:15:09;4.32;;;1.35;;
48203;SDS011;33994;50.998;5.864;2023-09-19T18:18:15;6.40;;;1.15;;
48203;SDS011;33994;50.998;5.864;2023-09-19T18:21:18;5.97;;;2.25;;
48203;SDS011;33994;50.998;5.864;2023-09-19T18:24:22;4.60;;;1.23;;
48203;SDS011;33994;50.998;5.864;2023-09-19T18:27:26;5.30;;;1.33;;
48203;SDS011;33994;50.998;5.864;2023-09-19T18:30:30;4.63;;;1.40;;
48203;SDS011;33994;50.998;5.864;2023-09-19T18:33:35;6.07;;;1.40;;
48203;SDS011;33994;50.998;5.864;2023-09-19T18:36:38;7.80;;;1.77;;
48203;SDS011;33994;50.998;5.864;2023-09-19T18:39:41;7.90;;;1.65;;
48203;SDS011;33994;50.998;5.864;2023-09-19T18:42:46;4.13;;;1.23;;
48203;SDS011;33994;50.998;5.864;2023-09-19T18:45:55;5.80;;;1.30;;
48203;SDS011;33994;50.998;5.864;2023-09-19T18:49:01;5.63;;;1.45;;